Hansford, WV (25103)

1:22 PM EST on February 14, 2016 (GMT -0500)
KWVGLENF2 | | Change Station
CLOSE
Current Station
Personal Weather Station
Location: Glen Ferris, WV
Elevation: 676 ft
Nearby Weather Stations

Elev 676 ft 38.15 °N, 81.22 °W | Updated 6 minutes ago

Partly Cloudy
Partly Cloudy
24.1 °F
Feels Like 24 °F
N
3.0
Wind Variable Wind from North
Gusts 5.0 mph

Today
High -- | Low -- °F
--% Chance of Precip.
Yesterday
High -- | Low -- °F
Precip. -- in
Pressure 30.42 in
Visibility 10.0 miles
Clouds Few 11000 ft
Scattered Clouds 18000 ft
Scattered Clouds 25000 ft
Windchill 24 °F
Dew Point 7 °F
Humidity 47%
Rainfall 0.00 in
Snow Depth Not available.
7:17 AM 6:02 PM
Waxing Crescent, 44% visible
METAR KCRW 141754Z COR 09005KT 10SM FEW110 SCT180 SCT250 M06/M17 A3037 RMK AO2 SLP301 4/001 T10611172 11061 21156 58032
Pressure 30.42 in
Visibility 10.0 miles
Clouds Few 11000 ft
Scattered Clouds 18000 ft
Scattered Clouds 25000 ft
Windchill 24 °F
Dew Point 7 °F
Humidity 47%
Rainfall 0.00 in
Snow Depth Not available.
7:17 AM 6:02 PM
Waxing Crescent, 44% visible
METAR KCRW 141754Z COR 09005KT 10SM FEW110 SCT180 SCT250 M06/M17 A3037 RMK AO2 SLP301 4/001 T10611172 11061 21156 58032

10-Day Weather Forecast

Almanac

Astronomy

Feb. 14, 2016 Rise Set
Actual Time
Civil Twilight
Nautical Twilight
Astronomical Twilight
Moon
Length of Visible Light
Length of Day
Tomorrow will be .
, % of the Moon is Illuminated

Today's Extremes

State Highs State Lows

Community

WunderPhotos

Upload Photos

1,892,869 photos uploaded!

WunderBlog® & News

Nearby

Air Quality

  Air Quality AQ Index Pollutant
Not available.

Snow Depth

Station Depth Elevation

Earthquake Activity

City Distance Mag. Time & Date
Minimum magnitude displayed is 2.5.

Coastal Water Temperatures

Place Temperature

Stations

Nearby Weather Stations

Station Location Temp. Windchill Dew Point Humidity Wind Precip. Elev Updated Type
                   

Watches & Warnings

Winter Weather Advisory
Issued: 5:52 AM EST Feb. 14, 2016 – National Weather Service

... Winter Weather Advisory remains in effect from 4 PM this
afternoon to 1 PM EST Monday...

* snow accumulations... 1 to 3 inches of snow.

* Temperatures... in the 20s... rising through the 30s Monday.

* Timing... this afternoon through early Monday afternoon.

* Impacts... untreated roads will be come snow covered... creating
hazardous travel conditions.

Precautionary/preparedness actions...

A Winter Weather Advisory for snow means that periods of snow
will cause primarily travel difficulties. Be prepared for snow
covered roads and limited visibilities... and use caution while
driving.